Time;durP1;ratioP1;P1;durP2;ratioP2;P2;SDS_P1;SDS_P2;PMS_P1;PMS_P2;Temp;Humidity;BMP_temperature;BMP_pressure;BME280_temperature;BME280_humidity;BME280_pressure;Samples;Min_cycle;Max_cycle;Signal;HPM_P1;HPM_P2
2024/01/18 00:00:19;;;;;;;6.18;2.45;;;1.30;99.90;;;;;;5081960;28;20209;-50
2024/01/18 00:02:44;;;;;;;11.52;2.45;;;1.20;99.90;;;;;;5064479;28;20197;-49
2024/01/18 00:05:10;;;;;;;6.40;2.75;;;1.20;99.90;;;;;;5082000;28;20540;-50
2024/01/18 00:07:36;;;;;;;5.72;2.10;;;1.20;99.90;;;;;;5082302;28;20186;-45
2024/01/18 00:10:02;;;;;;;6.97;2.15;;;1.20;99.90;;;;;;5082002;28;20709;-50
2024/01/18 00:12:28;;;;;;;6.88;2.30;;;1.10;99.90;;;;;;5082215;28;20200;-46
2024/01/18 00:14:54;;;;;;;10.55;5.57;;;1.10;99.90;;;;;;5080423;28;20281;-54
2024/01/18 00:17:20;;;;;;;7.93;3.70;;;1.10;99.90;;;;;;5081938;28;20204;-53
2024/01/18 00:19:46;;;;;;;7.35;3.20;;;1.10;99.90;;;;;;5081899;28;21143;-50
2024/01/18 00:22:12;;;;;;;4.80;2.40;;;1.00;99.90;;;;;;5081072;28;20222;-51
2024/01/18 00:24:38;;;;;;;5.20;2.22;;;1.10;99.90;;;;;;5082093;28;20196;-47
2024/01/18 00:27:04;;;;;;;5.05;2.28;;;1.10;99.90;;;;;;5081742;28;20201;-48
2024/01/18 00:29:31;;;;;;;10.30;3.00;;;1.20;99.90;;;;;;5081803;28;20200;-45
2024/01/18 00:31:57;;;;;;;4.38;2.55;;;1.20;99.90;;;;;;5079784;28;20194;-49
2024/01/18 00:34:22;;;;;;;9.27;3.10;;;1.30;99.90;;;;;;5080008;28;21028;-49
2024/01/18 00:36:49;;;;;;;7.97;2.97;;;1.30;99.90;;;;;;5080569;28;20250;-52
2024/01/18 00:39:18;;;;;;;13.20;3.97;;;1.40;99.90;;;;;;5062105;28;20216;-48
2024/01/18 00:41:45;;;;;;;12.90;4.32;;;1.40;99.90;;;;;;5081740;28;20579;-49
2024/01/18 00:44:11;;;;;;;16.75;4.47;;;1.40;99.90;;;;;;5081632;28;20274;-49
2024/01/18 00:46:37;;;;;;;9.35;4.28;;;1.40;99.90;;;;;;5080073;28;20999;-49
2024/01/18 00:49:04;;;;;;;8.73;4.00;;;1.30;99.90;;;;;;5081561;28;20583;-51
2024/01/18 00:51:30;;;;;;;9.43;4.88;;;1.30;99.90;;;;;;5081121;28;20653;-48
2024/01/18 00:53:56;;;;;;;12.27;4.72;;;1.20;99.90;;;;;;5080173;28;20192;-47
2024/01/18 00:56:22;;;;;;;12.73;4.45;;;1.20;99.90;;;;;;5079379;28;20327;-50
2024/01/18 00:58:49;;;;;;;9.25;4.38;;;1.20;99.90;;;;;;5081442;28;20273;-50
2024/01/18 01:01:16;;;;;;;11.27;4.35;;;1.20;99.90;;;;;;5080879;28;20257;-49
2024/01/18 01:03:42;;;;;;;8.23;4.53;;;1.10;99.90;;;;;;5081190;28;20193;-47
2024/01/18 01:06:12;;;;;;;8.40;3.88;;;1.10;99.90;;;;;;5081572;28;20185;-48
2024/01/18 01:08:39;;;;;;;10.80;4.65;;;1.00;99.90;;;;;;5079382;28;20182;-53
2024/01/18 01:11:05;;;;;;;8.35;3.42;;;1.00;99.90;;;;;;5080210;28;20197;-47
2024/01/18 01:13:32;;;;;;;8.10;3.33;;;0.90;99.90;;;;;;5080999;28;20645;-46
2024/01/18 01:15:58;;;;;;;9.52;3.20;;;0.90;99.90;;;;;;5081356;28;20563;-48
2024/01/18 01:18:24;;;;;;;6.05;3.20;;;0.90;99.90;;;;;;5081040;28;20196;-46
2024/01/18 01:20:50;;;;;;;9.95;3.50;;;0.90;99.90;;;;;;5080504;28;20324;-49
2024/01/18 01:23:15;;;;;;;8.52;3.78;;;0.80;99.90;;;;;;5081333;28;20192;-45
2024/01/18 01:25:41;;;;;;;9.07;3.83;;;0.80;99.90;;;;;;5079462;28;20246;-51
2024/01/18 01:28:07;;;;;;;9.45;3.38;;;0.80;99.90;;;;;;5081113;28;20226;-47
2024/01/18 01:30:33;;;;;;;10.43;3.80;;;0.80;99.90;;;;;;5080926;28;20190;-48
2024/01/18 01:32:59;;;;;;;7.13;3.80;;;0.80;99.90;;;;;;5078707;28;20194;-48
2024/01/18 01:35:25;;;;;;;11.18;3.67;;;0.80;99.90;;;;;;5080826;28;20246;-50
2024/01/18 01:37:51;;;;;;;9.95;3.50;;;0.80;99.90;;;;;;5079350;28;20197;-49
2024/01/18 01:40:18;;;;;;;11.27;3.80;;;0.80;99.90;;;;;;5080941;28;20864;-50
2024/01/18 01:42:44;;;;;;;12.80;3.45;;;0.80;99.90;;;;;;5079349;28;20194;-49
2024/01/18 01:45:10;;;;;;;5.88;3.67;;;0.80;99.90;;;;;;5080404;28;20200;-49
2024/01/18 01:47:36;;;;;;;11.38;4.00;;;0.80;99.90;;;;;;5081214;28;20185;-47
2024/01/18 01:50:03;;;;;;;9.45;3.83;;;0.80;99.90;;;;;;5079296;28;20213;-49
2024/01/18 01:52:33;;;;;;;7.82;2.58;;;0.80;99.90;;;;;;5079137;28;20186;-45
2024/01/18 01:54:59;;;;;;;8.52;2.10;;;0.80;99.90;;;;;;5080383;28;20185;-48
2024/01/18 01:57:26;;;;;;;12.05;1.95;;;0.90;99.90;;;;;;5080422;28;20205;-50
2024/01/18 01:59:53;;;;;;;9.95;1.50;;;0.90;99.90;;;;;;5080636;28;20588;-48
2024/01/18 02:02:23;;;;;;;9.52;1.60;;;0.90;99.90;;;;;;5078307;28;20193;-48
2024/01/18 02:04:50;;;;;;;6.85;1.80;;;1.00;99.90;;;;;;5080580;28;20677;-49
2024/01/18 02:07:17;;;;;;;9.13;1.70;;;1.10;99.90;;;;;;5079014;28;20233;-45
2024/01/18 02:09:43;;;;;;;6.00;1.45;;;1.10;99.90;;;;;;5080694;28;20228;-46
2024/01/18 02:12:11;;;;;;;4.00;1.73;;;1.10;99.90;;;;;;5078805;28;20188;-50
2024/01/18 02:14:37;;;;;;;5.18;1.60;;;1.20;99.90;;;;;;5078999;28;20243;-52
2024/01/18 02:17:06;;;;;;;3.90;2.28;;;1.20;99.90;;;;;;5080675;28;20284;-52
2024/01/18 02:19:32;;;;;;;10.70;2.63;;;1.10;99.90;;;;;;5080535;28;20182;-45
2024/01/18 02:22:01;;;;;;;5.30;3.03;;;1.00;99.90;;;;;;5079982;28;20237;-52
2024/01/18 02:24:40;;;;;;;10.40;3.13;;;1.00;99.90;;;;;;5080029;28;20210;-49
2024/01/18 02:27:06;;;;;;;6.90;2.90;;;1.00;99.90;;;;;;5080505;28;20586;-48
2024/01/18 02:29:32;;;;;;;5.75;2.78;;;1.00;99.90;;;;;;5080156;28;20193;-47
2024/01/18 02:31:57;;;;;;;8.93;2.75;;;0.90;99.90;;;;;;5079999;28;20340;-50
2024/01/18 02:34:23;;;;;;;6.60;2.92;;;0.90;99.90;;;;;;5079889;28;20727;-44
2024/01/18 02:36:49;;;;;;;8.15;2.63;;;0.90;99.90;;;;;;5080461;28;20181;-49
2024/01/18 02:39:15;;;;;;;9.43;3.20;;;0.80;99.90;;;;;;5080523;28;20212;-46
2024/01/18 02:41:41;;;;;;;8.55;2.83;;;0.80;99.90;;;;;;5080343;28;20213;-49
2024/01/18 02:44:08;;;;;;;10.63;3.13;;;0.80;99.90;;;;;;5081462;28;20523;-51
2024/01/18 02:46:34;;;;;;;8.02;2.88;;;0.70;99.90;;;;;;5083190;28;20528;-48
2024/01/18 02:49:00;;;;;;;6.95;2.80;;;0.70;99.90;;;;;;5082844;28;20633;-47
2024/01/18 02:51:26;;;;;;;5.90;2.85;;;0.70;99.90;;;;;;5083967;28;20946;-48
2024/01/18 02:53:52;;;;;;;7.88;2.80;;;0.70;99.90;;;;;;5083328;28;20264;-52
2024/01/18 02:56:19;;;;;;;6.97;2.53;;;0.60;99.90;;;;;;5083859;28;20331;-47
2024/01/18 02:58:45;;;;;;;6.38;2.70;;;0.60;99.90;;;;;;5083171;28;20258;-50
2024/01/18 03:01:11;;;;;;;10.23;3.00;;;0.60;99.90;;;;;;5083232;28;20209;-54
2024/01/18 03:03:36;;;;;;;10.52;2.85;;;0.60;99.90;;;;;;5082925;28;20192;-48
2024/01/18 03:06:03;;;;;;;7.43;2.67;;;0.60;99.90;;;;;;5083544;28;20646;-54
2024/01/18 03:08:29;;;;;;;5.05;2.22;;;0.60;99.90;;;;;;5083832;28;20214;-45
2024/01/18 03:10:55;;;;;;;6.38;1.80;;;0.60;99.90;;;;;;5083630;28;20576;-43
2024/01/18 03:13:20;;;;;;;8.70;2.15;;;0.60;99.90;;;;;;5083262;28;20306;-51
2024/01/18 03:15:46;;;;;;;7.00;2.22;;;0.60;99.90;;;;;;5083292;28;20201;-49
2024/01/18 03:18:12;;;;;;;6.25;2.47;;;0.50;99.90;;;;;;5083407;28;20626;-45
2024/01/18 03:20:38;;;;;;;5.00;1.83;;;0.50;99.90;;;;;;5082836;28;20301;-46
2024/01/18 03:23:04;;;;;;;6.88;1.67;;;0.50;99.90;;;;;;5082954;28;20728;-46
2024/01/18 03:25:30;;;;;;;5.63;1.50;;;0.50;99.90;;;;;;5083092;28;20285;-46
2024/01/18 03:27:56;;;;;;;5.78;1.52;;;0.50;99.90;;;;;;5081356;28;20276;-43
2024/01/18 03:30:22;;;;;;;3.80;1.52;;;0.50;99.90;;;;;;5083174;28;20752;-42
2024/01/18 03:32:48;;;;;;;4.20;1.70;;;0.50;99.90;;;;;;5082823;28;20562;-52
2024/01/18 03:35:14;;;;;;;2.92;1.02;;;0.50;99.90;;;;;;5082784;28;21027;-51
2024/01/18 03:37:40;;;;;;;3.10;1.15;;;0.50;99.90;;;;;;5082019;28;20281;-47
2024/01/18 03:40:10;;;;;;;4.63;1.25;;;0.60;99.90;;;;;;5082897;28;20199;-47
2024/01/18 03:42:43;;;;;;;4.72;1.30;;;0.60;99.90;;;;;;5082930;28;20239;-48
2024/01/18 03:45:09;;;;;;;2.33;1.25;;;0.70;99.90;;;;;;5082860;28;20259;-50
2024/01/18 03:47:35;;;;;;;5.95;1.15;;;0.70;99.90;;;;;;5082535;28;20666;-53
2024/01/18 03:50:02;;;;;;;5.25;1.30;;;0.80;99.90;;;;;;5082644;28;20189;-48
2024/01/18 03:52:27;;;;;;;3.00;1.17;;;0.90;99.90;;;;;;5081778;28;20582;-53
2024/01/18 03:54:53;;;;;;;4.82;1.38;;;0.90;99.90;;;;;;5082798;28;20220;-45
2024/01/18 03:57:19;;;;;;;4.45;1.30;;;1.00;99.90;;;;;;5081706;28;20258;-49
2024/01/18 03:59:46;;;;;;;3.45;1.30;;;1.10;99.90;;;;;;5082279;28;20195;-47
2024/01/18 04:02:13;;;;;;;4.78;1.20;;;1.10;99.90;;;;;;5078027;28;20209;-49
2024/01/18 04:04:39;;;;;;;8.07;1.27;;;1.20;99.90;;;;;;5081805;28;20642;-53
2024/01/18 04:07:05;;;;;;;4.10;1.13;;;1.20;99.90;;;;;;5082220;28;20189;-49
2024/01/18 04:09:31;;;;;;;2.15;1.23;;;1.30;99.90;;;;;;5082129;28;20182;-47
2024/01/18 04:11:57;;;;;;;5.70;1.27;;;1.30;99.90;;;;;;5082453;28;20194;-47
2024/01/18 04:14:23;;;;;;;6.05;0.98;;;1.40;99.90;;;;;;5082093;28;20269;-47
2024/01/18 04:16:49;;;;;;;6.22;1.40;;;1.40;99.90;;;;;;5081459;28;20209;-47
2024/01/18 04:19:14;;;;;;;6.90;1.50;;;1.40;99.90;;;;;;5082322;28;20190;-52
2024/01/18 04:21:40;;;;;;;4.55;1.20;;;1.40;99.90;;;;;;5081638;28;20228;-49
2024/01/18 04:24:06;;;;;;;4.07;1.08;;;1.40;99.90;;;;;;5082432;28;20221;-51
2024/01/18 04:26:34;;;;;;;4.38;1.10;;;1.40;99.90;;;;;;5081620;28;20371;-51
2024/01/18 04:29:00;;;;;;;4.13;1.00;;;1.40;99.90;;;;;;5081649;28;20194;-50
2024/01/18 04:31:26;;;;;;;2.05;0.80;;;1.50;99.90;;;;;;5080292;28;20189;-46
2024/01/18 04:33:55;;;;;;;2.28;0.88;;;1.50;99.90;;;;;;5081427;28;20199;-48
2024/01/18 04:36:21;;;;;;;2.95;0.88;;;1.50;99.90;;;;;;5079467;28;20255;-49
2024/01/18 04:38:46;;;;;;;1.98;0.75;;;1.40;99.90;;;;;;5081289;28;20202;-48
2024/01/18 04:41:12;;;;;;;5.32;0.88;;;1.40;99.90;;;;;;5081831;28;20379;-48
2024/01/18 04:43:38;;;;;;;2.70;1.13;;;1.40;99.90;;;;;;5081369;28;20261;-49
2024/01/18 04:46:04;;;;;;;4.55;1.10;;;1.40;99.90;;;;;;5077436;28;20221;-48
2024/01/18 04:48:33;;;;;;;5.13;0.85;;;1.30;99.90;;;;;;5081720;28;20193;-44
2024/01/18 04:50:59;;;;;;;2.15;0.90;;;1.20;99.90;;;;;;5081365;28;20186;-49
2024/01/18 04:53:24;;;;;;;4.60;1.10;;;1.20;99.90;;;;;;5081815;28;20205;-50
2024/01/18 04:55:50;;;;;;;3.50;1.30;;;1.20;99.90;;;;;;5081443;28;20236;-53
2024/01/18 04:58:16;;;;;;;4.20;1.30;;;1.20;99.90;;;;;;5081592;28;20250;-49
2024/01/18 05:00:42;;;;;;;3.30;1.10;;;1.10;99.90;;;;;;5079522;28;20220;-51
2024/01/18 05:03:08;;;;;;;3.38;1.10;;;1.10;99.90;;;;;;5079282;28;20220;-53
2024/01/18 05:05:37;;;;;;;1.67;0.88;;;1.10;99.90;;;;;;5080809;28;20204;-54
2024/01/18 05:08:03;;;;;;;3.70;1.30;;;1.10;99.90;;;;;;5078847;28;20197;-52
2024/01/18 05:10:29;;;;;;;3.15;1.38;;;1.00;99.90;;;;;;5081335;28;20193;-48
2024/01/18 05:12:56;;;;;;;4.43;1.25;;;1.10;99.90;;;;;;5081090;28;20198;-47
2024/01/18 05:15:24;;;;;;;2.63;0.90;;;1.10;99.90;;;;;;5081036;28;20185;-47
2024/01/18 05:17:51;;;;;;;3.42;1.08;;;1.20;99.90;;;;;;5080815;28;20698;-50
2024/01/18 05:20:17;;;;;;;5.35;1.20;;;1.20;99.90;;;;;;5079031;28;20201;-48
2024/01/18 05:22:43;;;;;;;4.80;1.30;;;1.20;99.90;;;;;;5080889;28;21300;-49
2024/01/18 05:25:09;;;;;;;4.43;1.27;;;1.30;99.90;;;;;;5079633;28;20239;-46
2024/01/18 05:27:36;;;;;;;1.65;1.10;;;1.30;99.90;;;;;;5081299;28;20198;-47
2024/01/18 05:30:04;;;;;;;2.97;1.38;;;1.30;99.90;;;;;;5081045;28;20678;-45
2024/01/18 05:32:30;;;;;;;5.85;1.23;;;1.30;99.90;;;;;;5078828;28;20660;-48
2024/01/18 05:34:56;;;;;;;3.70;1.38;;;1.30;99.90;;;;;;5080515;28;20190;-45
2024/01/18 05:37:22;;;;;;;7.50;1.45;;;1.20;99.90;;;;;;5080624;28;20189;-47
2024/01/18 05:39:53;;;;;;;5.78;1.90;;;1.10;99.90;;;;;;5080172;28;20559;-54
2024/01/18 05:42:19;;;;;;;4.68;1.52;;;1.10;99.90;;;;;;5080644;28;20542;-44
2024/01/18 05:44:46;;;;;;;5.80;1.42;;;1.10;99.90;;;;;;5080562;28;20189;-49
2024/01/18 05:47:12;;;;;;;8.18;1.60;;;1.00;99.90;;;;;;5080294;28;20250;-52
2024/01/18 05:49:39;;;;;;;5.20;1.63;;;1.00;99.90;;;;;;5080937;28;20266;-47
2024/01/18 05:52:05;;;;;;;6.22;1.80;;;1.00;99.90;;;;;;5078331;28;20202;-47
2024/01/18 05:54:33;;;;;;;3.70;1.70;;;1.00;99.90;;;;;;5080902;28;20276;-44
2024/01/18 05:57:01;;;;;;;6.55;1.55;;;1.00;99.90;;;;;;5080540;28;20210;-48
2024/01/18 05:59:28;;;;;;;7.95;1.65;;;1.00;99.90;;;;;;5080467;28;20197;-49
2024/01/18 06:01:54;;;;;;;4.82;1.30;;;1.00;99.90;;;;;;5080694;28;20271;-50
2024/01/18 06:04:20;;;;;;;7.80;1.20;;;1.00;99.90;;;;;;5078337;28;20188;-46
2024/01/18 06:06:46;;;;;;;6.93;1.30;;;1.10;99.90;;;;;;5062353;28;20556;-46
2024/01/18 06:09:14;;;;;;;6.82;1.10;;;1.10;99.90;;;;;;5079822;28;20239;-47
2024/01/18 06:11:40;;;;;;;5.07;1.20;;;1.10;99.90;;;;;;5079910;28;20796;-50
2024/01/18 06:14:06;;;;;;;7.40;1.33;;;1.10;99.90;;;;;;5080378;28;20271;-48
2024/01/18 06:16:32;;;;;;;4.18;1.30;;;1.20;99.90;;;;;;5080332;28;21289;-48
2024/01/18 06:18:58;;;;;;;3.08;1.10;;;1.20;99.90;;;;;;5079748;28;20601;-54
2024/01/18 06:21:24;;;;;;;6.30;1.15;;;1.20;99.90;;;;;;5082289;28;20226;-50
2024/01/18 06:23:50;;;;;;;7.68;1.10;;;1.10;99.90;;;;;;5083904;28;20185;-46
2024/01/18 06:26:16;;;;;;;4.28;1.35;;;1.10;99.90;;;;;;5083592;28;20197;-48
2024/01/18 06:28:42;;;;;;;4.03;1.35;;;1.10;99.90;;;;;;5083867;28;20185;-45
2024/01/18 06:31:08;;;;;;;2.65;1.17;;;1.10;99.90;;;;;;5083613;28;20190;-53
2024/01/18 06:33:34;;;;;;;8.02;1.50;;;1.10;99.90;;;;;;5084068;28;20201;-50
2024/01/18 06:36:00;;;;;;;3.70;1.15;;;1.10;99.90;;;;;;5083019;28;20190;-46
2024/01/18 06:38:26;;;;;;;2.50;1.35;;;1.10;99.90;;;;;;5082459;28;20182;-52
2024/01/18 06:40:52;;;;;;;6.32;1.60;;;1.10;99.90;;;;;;5083132;28;20712;-52
2024/01/18 06:43:18;;;;;;;3.03;1.40;;;1.10;99.90;;;;;;5084140;28;20186;-49
2024/01/18 06:45:44;;;;;;;4.45;1.38;;;1.00;99.90;;;;;;5083545;28;20190;-49
2024/01/18 06:48:10;;;;;;;4.30;1.20;;;1.00;99.90;;;;;;5082374;28;20178;-45
2024/01/18 06:50:36;;;;;;;7.28;1.55;;;1.10;99.90;;;;;;5083286;28;20665;-50
2024/01/18 06:53:03;;;;;;;3.80;1.30;;;1.10;99.90;;;;;;5083501;28;21239;-52
2024/01/18 06:55:29;;;;;;;5.75;1.20;;;1.10;99.90;;;;;;5064925;28;20285;-50
2024/01/18 06:57:58;;;;;;;4.78;1.10;;;1.10;99.90;;;;;;5065458;28;20204;-54
2024/01/18 07:00:24;;;;;;;5.55;1.30;;;1.20;99.90;;;;;;5081735;28;20210;-46
2024/01/18 07:02:51;;;;;;;4.68;1.23;;;1.30;99.90;;;;;;5083335;28;20200;-50
2024/01/18 07:05:17;;;;;;;11.10;1.52;;;1.40;99.90;;;;;;5082860;28;21186;-50
2024/01/18 07:07:44;;;;;;;7.00;1.60;;;1.50;99.90;;;;;;5048065;28;20194;-49
2024/01/18 07:10:10;;;;;;;6.13;1.25;;;1.50;99.90;;;;;;5082439;28;20189;-50
2024/01/18 07:12:36;;;;;;;6.68;1.25;;;1.60;99.90;;;;;;5082635;28;20185;-53
2024/01/18 07:15:03;;;;;;;4.07;1.30;;;1.60;99.90;;;;;;5081766;28;20269;-50
2024/01/18 07:17:30;;;;;;;3.72;1.33;;;1.70;99.90;;;;;;5082499;28;20732;-47
2024/01/18 07:19:56;;;;;;;3.70;1.30;;;1.70;99.90;;;;;;5082793;28;21013;-49
2024/01/18 07:22:23;;;;;;;5.30;1.10;;;1.70;99.90;;;;;;5082993;28;20228;-48
2024/01/18 07:24:49;;;;;;;4.63;1.25;;;1.80;99.90;;;;;;5082744;28;20622;-49
2024/01/18 07:27:15;;;;;;;5.10;1.15;;;1.80;99.90;;;;;;5064592;28;20190;-47
2024/01/18 07:29:42;;;;;;;4.18;1.30;;;1.80;99.90;;;;;;5081247;28;20208;-53
2024/01/18 07:32:08;;;;;;;6.88;1.20;;;1.80;99.90;;;;;;5080307;28;20865;-48
2024/01/18 07:34:35;;;;;;;3.55;1.48;;;1.80;99.90;;;;;;5082549;28;20224;-49
2024/01/18 07:37:00;;;;;;;3.63;1.50;;;1.70;99.90;;;;;;5081172;28;20563;-50
2024/01/18 07:39:27;;;;;;;3.85;1.42;;;1.70;99.90;;;;;;5082608;28;20186;-50
2024/01/18 07:41:54;;;;;;;5.05;1.60;;;1.70;99.90;;;;;;5063882;28;20241;-45
2024/01/18 07:44:20;;;;;;;4.72;1.60;;;1.60;99.90;;;;;;5082493;28;21121;-53
2024/01/18 07:46:46;;;;;;;5.00;1.73;;;1.60;99.90;;;;;;5082378;28;20555;-44
2024/01/18 07:49:12;;;;;;;5.97;1.38;;;1.60;99.90;;;;;;5082134;28;20173;-47
2024/01/18 07:51:38;;;;;;;4.05;1.48;;;1.60;99.90;;;;;;5081766;28;20530;-48
2024/01/18 07:54:04;;;;;;;7.40;1.48;;;1.60;99.90;;;;;;5081758;28;20193;-50
2024/01/18 07:56:30;;;;;;;5.03;1.52;;;1.50;99.90;;;;;;5079780;28;20565;-54
2024/01/18 07:58:56;;;;;;;4.72;1.40;;;1.60;99.90;;;;;;5081500;28;20311;-52
2024/01/18 08:01:22;;;;;;;6.60;1.40;;;1.60;99.90;;;;;;5063392;28;20220;-49
2024/01/18 08:03:48;;;;;;;3.65;1.50;;;1.60;99.90;;;;;;5063722;28;20662;-48
2024/01/18 08:06:14;;;;;;;9.45;1.80;;;1.60;99.90;;;;;;5047359;28;20220;-45
2024/01/18 08:08:41;;;;;;;6.03;1.75;;;1.70;99.90;;;;;;5047255;28;20653;-50
2024/01/18 08:11:12;;;;;;;8.43;1.55;;;1.70;99.90;;;;;;5082001;28;20186;-50
2024/01/18 08:13:39;;;;;;;4.38;1.67;;;1.70;99.90;;;;;;5082038;28;20189;-51
2024/01/18 08:16:05;;;;;;;5.40;1.90;;;1.70;99.90;;;;;;5081603;28;20261;-53
2024/01/18 08:18:31;;;;;;;6.53;1.85;;;1.70;99.90;;;;;;5046875;28;20255;-52
2024/01/18 08:20:58;;;;;;;5.70;2.20;;;1.70;99.90;;;;;;5062978;28;20773;-46
2024/01/18 08:23:24;;;;;;;7.80;2.00;;;1.70;99.90;;;;;;5081781;28;20610;-46
2024/01/18 08:25:50;;;;;;;6.55;2.28;;;1.70;99.90;;;;;;5081980;28;20181;-50
2024/01/18 08:28:17;;;;;;;6.28;1.70;;;1.80;99.90;;;;;;5081308;28;20672;-50
2024/01/18 08:30:44;;;;;;;4.38;1.80;;;1.80;99.90;;;;;;5080282;28;20227;-49
2024/01/18 08:33:11;;;;;;;3.05;1.77;;;1.90;99.90;;;;;;5063331;28;20178;-49
2024/01/18 08:35:37;;;;;;;7.70;1.80;;;2.00;99.90;;;;;;5080060;28;20186;-47
2024/01/18 08:38:04;;;;;;;5.20;1.70;;;2.10;99.90;;;;;;5079651;28;20278;-47
2024/01/18 08:40:30;;;;;;;6.45;1.80;;;2.20;99.90;;;;;;5081104;28;20676;-50
2024/01/18 08:42:56;;;;;;;5.10;1.70;;;2.20;99.90;;;;;;5077760;28;20204;-54
2024/01/18 08:45:23;;;;;;;5.05;2.50;;;2.20;99.90;;;;;;5063664;28;20323;-45
2024/01/18 08:47:49;;;;;;;7.57;1.67;;;2.20;99.90;;;;;;5080433;28;20235;-50
2024/01/18 08:50:15;;;;;;;2.17;1.27;;;2.20;99.90;;;;;;5079458;28;20532;-51
2024/01/18 08:52:44;;;;;;;2.67;1.20;;;2.20;99.90;;;;;;5079509;28;20293;-54
2024/01/18 08:55:10;;;;;;;4.22;1.40;;;2.20;99.90;;;;;;5080912;28;20729;-48
2024/01/18 08:57:36;;;;;;;2.78;1.20;;;2.30;99.90;;;;;;5076279;28;20190;-48
2024/01/18 09:00:04;;;;;;;5.60;1.52;;;2.30;99.90;;;;;;5081463;28;20725;-53
2024/01/18 09:02:30;;;;;;;6.63;1.55;;;2.30;99.90;;;;;;5080296;28;20186;-49
2024/01/18 09:04:56;;;;;;;3.55;1.60;;;2.40;99.90;;;;;;5079097;28;20219;-50
2024/01/18 09:07:23;;;;;;;5.03;1.50;;;2.40;99.90;;;;;;5080223;28;20195;-50
2024/01/18 09:09:49;;;;;;;4.25;2.05;;;2.50;99.90;;;;;;5081364;28;20182;-45
2024/01/18 09:12:15;;;;;;;4.20;1.77;;;2.60;99.90;;;;;;5081288;28;20211;-49
2024/01/18 09:14:42;;;;;;;2.55;1.50;;;2.70;99.90;;;;;;5079275;28;20315;-47
2024/01/18 09:17:09;;;;;;;5.18;1.35;;;2.80;99.90;;;;;;5046140;28;20198;-45
2024/01/18 09:19:35;;;;;;;4.03;1.50;;;2.80;99.90;;;;;;5080288;28;20561;-51
2024/01/18 09:22:02;;;;;;;3.30;1.35;;;2.90;99.90;;;;;;5080488;28;20275;-48
2024/01/18 09:24:28;;;;;;;2.63;1.48;;;3.00;99.90;;;;;;5062301;28;20219;-48
2024/01/18 09:26:54;;;;;;;5.63;2.33;;;3.10;99.90;;;;;;5081159;28;20186;-47
2024/01/18 09:29:20;;;;;;;7.35;1.63;;;3.20;99.90;;;;;;5078917;28;20197;-47
2024/01/18 09:31:46;;;;;;;7.95;2.00;;;3.20;99.90;;;;;;5080166;28;20181;-48
2024/01/18 09:34:12;;;;;;;3.67;1.58;;;3.30;99.90;;;;;;5028804;28;20193;-48
2024/01/18 09:36:38;;;;;;;5.13;1.45;;;3.40;99.90;;;;;;5080740;28;20186;-48
2024/01/18 09:39:08;;;;;;;4.15;1.70;;;3.40;99.90;;;;;;5079323;28;21086;-46
2024/01/18 09:41:35;;;;;;;7.07;1.50;;;3.50;99.90;;;;;;5079278;28;20244;-47
2024/01/18 09:44:03;;;;;;;4.80;1.30;;;3.50;99.90;;;;;;5080595;28;20192;-47
2024/01/18 09:46:30;;;;;;;6.40;1.63;;;3.70;99.90;;;;;;5079952;28;20182;-45
2024/01/18 09:48:57;;;;;;;4.90;1.45;;;3.80;99.90;;;;;;5079568;28;20186;-50
2024/01/18 09:51:23;;;;;;;5.63;1.50;;;3.90;99.90;;;;;;5079398;28;20197;-47
2024/01/18 09:53:55;;;;;;;3.30;1.30;;;4.10;99.90;;;;;;5083197;28;20214;-50
2024/01/18 09:56:27;;;;;;;6.43;1.30;;;4.20;99.90;;;;;;5084279;28;20196;-50
2024/01/18 09:58:54;;;;;;;5.95;1.42;;;4.30;99.90;;;;;;5084270;28;20182;-44
2024/01/18 10:01:21;;;;;;;6.05;1.40;;;4.30;99.90;;;;;;5083844;28;20297;-48
2024/01/18 10:03:48;;;;;;;3.67;1.10;;;4.10;99.90;;;;;;5082723;28;20885;-50
2024/01/18 10:06:18;;;;;;;3.35;1.10;;;4.10;99.90;;;;;;5082978;28;20209;-51
2024/01/18 10:08:48;;;;;;;4.07;1.17;;;4.00;99.90;;;;;;5084150;28;20889;-51
2024/01/18 10:11:14;;;;;;;3.15;1.58;;;3.90;99.90;;;;;;5084607;28;20261;-49
2024/01/18 10:13:57;;;;;;;26.00;1.65;;;3.80;99.90;;;;;;5084082;28;20263;-47
2024/01/18 10:16:30;;;;;;;4.90;1.23;;;3.80;99.90;;;;;;5083895;28;20221;-50
2024/01/18 10:18:57;;;;;;;5.68;1.30;;;3.80;99.90;;;;;;5083307;28;20213;-53
2024/01/18 10:21:24;;;;;;;4.60;1.20;;;3.80;99.90;;;;;;5083456;28;20234;-47
2024/01/18 10:23:51;;;;;;;4.30;1.38;;;3.80;99.90;;;;;;5083514;28;20186;-50
2024/01/18 10:26:17;;;;;;;4.30;1.27;;;3.80;99.90;;;;;;5082965;28;20181;-49
2024/01/18 10:28:44;;;;;;;5.95;1.00;;;3.90;99.90;;;;;;5082940;28;20190;-46
2024/01/18 10:31:10;;;;;;;3.22;1.55;;;3.90;99.90;;;;;;5080799;28;20198;-49
2024/01/18 10:33:35;;;;;;;4.75;1.25;;;4.00;99.90;;;;;;5080946;28;20245;-50
2024/01/18 10:36:02;;;;;;;1.63;0.90;;;4.00;99.90;;;;;;5083105;28;20243;-50
2024/01/18 10:38:39;;;;;;;2.10;1.08;;;4.00;99.90;;;;;;5082992;28;20193;-46
2024/01/18 10:41:07;;;;;;;6.13;1.63;;;4.10;99.90;;;;;;5083609;28;20221;-49
2024/01/18 10:43:34;;;;;;;2.63;1.10;;;4.20;99.90;;;;;;5082446;28;20206;-48
2024/01/18 10:46:01;;;;;;;3.50;1.00;;;4.30;99.90;;;;;;5082108;28;20186;-51
2024/01/18 10:48:27;;;;;;;4.68;1.30;;;4.50;99.90;;;;;;5083888;28;20270;-49
2024/01/18 10:50:57;;;;;;;2.75;1.20;;;4.70;99.90;;;;;;5083797;28;20186;-50
2024/01/18 10:53:33;;;;;;;5.25;1.17;;;4.70;99.90;;;;;;5084017;28;20199;-50
2024/01/18 10:56:00;;;;;;;3.67;1.00;;;4.60;99.90;;;;;;5083662;28;20268;-47
2024/01/18 10:58:26;;;;;;;2.90;1.10;;;4.60;99.90;;;;;;5082387;28;20189;-50
2024/01/18 11:00:53;;;;;;;5.00;1.35;;;4.50;99.90;;;;;;5082936;28;20217;-48
2024/01/18 11:03:20;;;;;;;4.60;1.20;;;4.40;99.90;;;;;;5082342;28;20186;-50
2024/01/18 11:05:50;;;;;;;3.97;1.17;;;4.30;99.90;;;;;;5081154;28;20190;-45
2024/01/18 11:08:20;;;;;;;4.30;1.10;;;4.20;99.90;;;;;;5083396;28;21044;-50
2024/01/18 11:10:49;;;;;;;4.35;1.25;;;4.20;99.90;;;;;;5083132;28;20687;-48
2024/01/18 11:13:16;;;;;;;5.55;1.30;;;4.10;99.90;;;;;;5082891;28;20212;-47
2024/01/18 11:15:44;;;;;;;2.92;1.40;;;4.00;99.90;;;;;;5081716;28;20190;-50
2024/01/18 11:18:13;;;;;;;6.18;1.48;;;4.00;99.90;;;;;;5081892;28;20189;-45
2024/01/18 11:21:12;;;;;;;5.28;1.38;;;3.90;99.90;;;;;;5083531;28;20209;-50
2024/01/18 11:23:40;;;;;;;4.97;1.35;;;3.90;99.90;;;;;;5069206;28;20230;-48
2024/01/18 11:26:08;;;;;;;4.18;1.10;;;3.90;99.90;;;;;;5083141;28;20186;-47
2024/01/18 11:28:34;;;;;;;4.43;1.30;;;3.80;99.90;;;;;;5083098;28;21057;-47
2024/01/18 11:31:01;;;;;;;4.78;1.10;;;3.80;99.90;;;;;;5083214;28;20222;-51
2024/01/18 11:33:27;;;;;;;3.40;1.05;;;3.70;99.90;;;;;;5082076;28;20181;-45
2024/01/18 11:35:54;;;;;;;4.88;1.20;;;3.70;99.90;;;;;;5082334;28;21154;-48
2024/01/18 11:38:24;;;;;;;4.20;1.30;;;3.70;99.90;;;;;;5082420;28;20616;-50
2024/01/18 11:40:56;;;;;;;4.55;1.45;;;3.70;99.90;;;;;;5082307;28;20242;-47
2024/01/18 11:43:24;;;;;;;3.47;1.15;;;3.70;99.90;;;;;;5081964;28;20196;-46
2024/01/18 11:45:50;;;;;;;8.57;1.80;;;3.70;99.90;;;;;;5082946;28;20231;-50
2024/01/18 11:48:18;;;;;;;6.57;1.63;;;3.70;99.90;;;;;;5082316;28;20950;-46
2024/01/18 11:50:44;;;;;;;4.30;1.45;;;3.70;99.90;;;;;;5082516;28;20656;-45
2024/01/18 11:53:14;;;;;;;5.05;1.23;;;3.80;99.90;;;;;;5080982;28;20324;-43
2024/01/18 11:55:48;;;;;;;5.82;1.80;;;3.80;99.90;;;;;;5082524;28;20205;-48
2024/01/18 11:58:14;;;;;;;6.53;1.60;;;3.80;99.90;;;;;;5081539;28;20545;-49
2024/01/18 12:00:41;;;;;;;3.72;1.38;;;3.80;99.90;;;;;;5082311;28;20292;-50
2024/01/18 12:03:11;;;;;;;5.13;1.55;;;3.80;99.90;;;;;;5080552;28;20196;-47
2024/01/18 12:05:37;;;;;;;7.72;1.70;;;3.80;99.90;;;;;;5081396;28;20223;-46
2024/01/18 12:08:04;;;;;;;5.57;1.83;;;3.80;99.90;;;;;;5082272;28;20222;-50
2024/01/18 12:10:31;;;;;;;4.32;1.70;;;3.80;99.90;;;;;;5082412;28;20190;-49
2024/01/18 12:12:58;;;;;;;7.32;1.65;;;3.80;99.90;;;;;;5081851;28;20221;-51
2024/01/18 12:15:24;;;;;;;5.07;1.38;;;3.80;99.90;;;;;;5081865;28;20622;-51
2024/01/18 12:17:55;;;;;;;3.80;1.40;;;3.70;99.90;;;;;;5081890;28;20522;-48
2024/01/18 12:20:21;;;;;;;6.45;1.52;;;3.70;99.90;;;;;;5082032;28;21073;-43
2024/01/18 12:22:46;;;;;;;3.05;1.42;;;3.70;99.90;;;;;;5081041;28;20225;-49
2024/01/18 12:25:13;;;;;;;4.63;1.60;;;3.70;99.90;;;;;;5080746;28;20193;-50
2024/01/18 12:27:40;;;;;;;4.82;1.40;;;3.70;99.90;;;;;;5081501;28;20192;-46
2024/01/18 12:30:07;;;;;;;4.47;1.70;;;3.70;99.90;;;;;;5082134;28;20619;-49
2024/01/18 12:32:35;;;;;;;2.58;1.33;;;3.70;99.90;;;;;;5080370;28;20238;-47
2024/01/18 12:35:01;;;;;;;8.02;1.45;;;3.70;99.90;;;;;;5082227;28;21005;-45
2024/01/18 12:37:29;;;;;;;5.80;1.42;;;3.70;99.90;;;;;;5080443;28;20302;-46
2024/01/18 12:39:55;;;;;;;5.22;1.52;;;3.70;99.90;;;;;;5081588;28;20194;-47
2024/01/18 12:42:21;;;;;;;9.85;1.60;;;3.80;99.90;;;;;;5081573;28;20220;-46
2024/01/18 12:44:52;;;;;;;2.97;1.48;;;3.80;99.90;;;;;;5081572;28;20274;-49
2024/01/18 12:47:18;;;;;;;8.18;1.80;;;3.80;99.90;;;;;;5080706;28;20182;-50
2024/01/18 12:49:45;;;;;;;4.18;1.40;;;3.80;99.90;;;;;;5081573;28;20182;-48
2024/01/18 12:52:13;;;;;;;6.68;1.50;;;3.90;99.90;;;;;;5081599;28;20197;-52